sensor_id;sensor_type;location;lat;lon;timestamp;pressure;altitude;pressure_sealevel;temperature;humidity
43119;BME280;28729;49.838;8.650;2023-02-01T00:03:41;100344.81;;;5.87;100.00
43119;BME280;28729;49.838;8.650;2023-02-01T00:07:46;100329.22;;;5.88;100.00
43119;BME280;28729;49.838;8.650;2023-02-01T00:11:48;100340.16;;;5.81;100.00
43119;BME280;28729;49.838;8.650;2023-02-01T00:15:50;100332.38;;;5.85;100.00
43119;BME280;28729;49.838;8.650;2023-02-01T00:19:51;100329.88;;;5.83;100.00
43119;BME280;28729;49.838;8.650;2023-02-01T00:23:53;100323.94;;;5.80;100.00
43119;BME280;28729;49.838;8.650;2023-02-01T00:27:55;100333.03;;;5.80;100.00
43119;BME280;28729;49.838;8.650;2023-02-01T00:31:58;100334.06;;;5.79;100.00
43119;BME280;28729;49.838;8.650;2023-02-01T00:36:05;100337.44;;;5.81;100.00
43119;BME280;28729;49.838;8.650;2023-02-01T00:40:07;100328.56;;;5.72;100.00
43119;BME280;28729;49.838;8.650;2023-02-01T00:44:09;100313.00;;;5.73;100.00
43119;BME280;28729;49.838;8.650;2023-02-01T00:48:11;100325.66;;;5.74;100.00
43119;BME280;28729;49.838;8.650;2023-02-01T00:52:12;100319.72;;;5.70;100.00
43119;BME280;28729;49.838;8.650;2023-02-01T00:56:14;100313.59;;;5.62;100.00
43119;BME280;28729;49.838;8.650;2023-02-01T01:00:16;100299.72;;;5.57;100.00
43119;BME280;28729;49.838;8.650;2023-02-01T01:04:18;100299.06;;;5.55;100.00
43119;BME280;28729;49.838;8.650;2023-02-01T01:08:19;100294.25;;;5.57;100.00
43119;BME280;28729;49.838;8.650;2023-02-01T01:12:21;100292.75;;;5.54;100.00
43119;BME280;28729;49.838;8.650;2023-02-01T01:16:24;100299.72;;;5.57;100.00
43119;BME280;28729;49.838;8.650;2023-02-01T01:20:27;100295.50;;;5.54;100.00
43119;BME280;28729;49.838;8.650;2023-02-01T01:24:29;100287.72;;;5.58;100.00
43119;BME280;28729;49.838;8.650;2023-02-01T01:28:30;100303.53;;;5.62;100.00
43119;BME280;28729;49.838;8.650;2023-02-01T01:32:32;100302.88;;;5.67;100.00
43119;BME280;28729;49.838;8.650;2023-02-01T01:36:34;100287.75;;;5.71;100.00
43119;BME280;28729;49.838;8.650;2023-02-01T01:40:35;100296.41;;;5.75;100.00
43119;BME280;28729;49.838;8.650;2023-02-01T01:53:08;100266.50;;;5.73;100.00
43119;BME280;28729;49.838;8.650;2023-02-01T01:57:34;100261.69;;;5.75;100.00
43119;BME280;28729;49.838;8.650;2023-02-01T02:01:38;100258.94;;;5.75;100.00
43119;BME280;28729;49.838;8.650;2023-02-01T02:05:41;100254.53;;;5.74;100.00
43119;BME280;28729;49.838;8.650;2023-02-01T02:09:43;100255.81;;;5.78;100.00
43119;BME280;28729;49.838;8.650;2023-02-01T02:14:01;100240.00;;;5.74;100.00
43119;BME280;28729;49.838;8.650;2023-02-01T02:18:12;100233.91;;;5.71;100.00
43119;BME280;28729;49.838;8.650;2023-02-01T02:22:41;100233.69;;;5.73;100.00
43119;BME280;28729;49.838;8.650;2023-02-01T02:36:12;100208.25;;;5.79;100.00
43119;BME280;28729;49.838;8.650;2023-02-01T02:44:13;100208.47;;;5.84;100.00
43119;BME280;28729;49.838;8.650;2023-02-01T02:49:03;100209.53;;;5.83;100.00
43119;BME280;28729;49.838;8.650;2023-02-01T02:53:15;100217.09;;;5.81;100.00
43119;BME280;28729;49.838;8.650;2023-02-01T02:57:39;100233.69;;;5.80;100.00
43119;BME280;28729;49.838;8.650;2023-02-01T03:02:01;100232.66;;;5.74;100.00
43119;BME280;28729;49.838;8.650;2023-02-01T03:06:23;100244.88;;;5.78;100.00
43119;BME280;28729;49.838;8.650;2023-02-01T03:10:49;100243.59;;;5.74;100.00
43119;BME280;28729;49.838;8.650;2023-02-01T03:14:57;100245.06;;;5.77;100.00
43119;BME280;28729;49.838;8.650;2023-02-01T03:23:13;100260.19;;;5.66;100.00
43119;BME280;28729;49.838;8.650;2023-02-01T03:27:22;100250.28;;;5.65;100.00
43119;BME280;28729;49.838;8.650;2023-02-01T03:31:27;100247.97;;;5.62;100.00
43119;BME280;28729;49.838;8.650;2023-02-01T03:35:45;100248.38;;;5.59;100.00
43119;BME280;28729;49.838;8.650;2023-02-01T03:40:10;100247.34;;;5.60;100.00
43119;BME280;28729;49.838;8.650;2023-02-01T03:44:26;100246.31;;;5.61;100.00
43119;BME280;28729;49.838;8.650;2023-02-01T03:48:31;100244.41;;;5.61;100.00
43119;BME280;28729;49.838;8.650;2023-02-01T03:52:37;100233.03;;;5.58;100.00
43119;BME280;28729;49.838;8.650;2023-02-01T03:56:43;100225.91;;;5.57;100.00
43119;BME280;28729;49.838;8.650;2023-02-01T04:00:51;100223.16;;;5.57;100.00
43119;BME280;28729;49.838;8.650;2023-02-01T04:04:53;100218.72;;;5.56;100.00
43119;BME280;28729;49.838;8.650;2023-02-01T04:08:55;100222.09;;;5.58;100.00
43119;BME280;28729;49.838;8.650;2023-02-01T04:12:57;100220.03;;;5.60;100.00
43119;BME280;28729;49.838;8.650;2023-02-01T04:16:58;100225.50;;;5.60;100.00
43119;BME280;28729;49.838;8.650;2023-02-01T04:21:00;100209.91;;;5.60;100.00
43119;BME280;28729;49.838;8.650;2023-02-01T04:25:03;100213.31;;;5.62;100.00
43119;BME280;28729;49.838;8.650;2023-02-01T04:29:08;100216.63;;;5.58;100.00
43119;BME280;28729;49.838;8.650;2023-02-01T04:33:10;100207.38;;;5.59;100.00
43119;BME280;28729;49.838;8.650;2023-02-01T04:37:15;100204.03;;;5.57;100.00
43119;BME280;28729;49.838;8.650;2023-02-01T04:41:17;100219.59;;;5.56;100.00
43119;BME280;28729;49.838;8.650;2023-02-01T04:45:20;100217.28;;;5.60;100.00
43119;BME280;28729;49.838;8.650;2023-02-01T04:49:21;100220.03;;;5.60;100.00
43119;BME280;28729;49.838;8.650;2023-02-01T04:53:23;100224.22;;;5.62;100.00
43119;BME280;28729;49.838;8.650;2023-02-01T04:57:25;100223.59;;;5.60;100.00
43119;BME280;28729;49.838;8.650;2023-02-01T05:01:27;100228.41;;;5.58;100.00
43119;BME280;28729;49.838;8.650;2023-02-01T05:05:29;100225.50;;;5.60;100.00
43119;BME280;28729;49.838;8.650;2023-02-01T05:09:30;100223.78;;;5.59;100.00
43119;BME280;28729;49.838;8.650;2023-02-01T05:13:32;100231.97;;;5.59;100.00
43119;BME280;28729;49.838;8.650;2023-02-01T05:17:51;100235.78;;;5.58;100.00
43119;BME280;28729;49.838;8.650;2023-02-01T05:21:53;100220.84;;;5.54;100.00
43119;BME280;28729;49.838;8.650;2023-02-01T05:26:01;100212.00;;;5.52;100.00
43119;BME280;28729;49.838;8.650;2023-02-01T05:30:04;100203.16;;;5.49;100.00
43119;BME280;28729;49.838;8.650;2023-02-01T05:34:07;100206.94;;;5.42;100.00
43119;BME280;28729;49.838;8.650;2023-02-01T05:38:09;100200.41;;;5.43;100.00
43119;BME280;28729;49.838;8.650;2023-02-01T05:42:11;100198.94;;;5.47;100.00
43119;BME280;28729;49.838;8.650;2023-02-01T05:46:13;100199.16;;;5.45;100.00
43119;BME280;28729;49.838;8.650;2023-02-01T05:50:16;100217.88;;;5.48;100.00
43119;BME280;28729;49.838;8.650;2023-02-01T05:54:18;100224.19;;;5.49;100.00
43119;BME280;28729;49.838;8.650;2023-02-01T05:58:19;100208.63;;;5.49;100.00
43119;BME280;28729;49.838;8.650;2023-02-01T06:02:21;100207.78;;;5.49;100.00
43119;BME280;28729;49.838;8.650;2023-02-01T06:06:23;100214.50;;;5.46;100.00
43119;BME280;28729;49.838;8.650;2023-02-01T06:10:25;100204.63;;;5.45;100.00
43119;BME280;28729;49.838;8.650;2023-02-01T06:14:27;100216.63;;;5.44;100.00
43119;BME280;28729;49.838;8.650;2023-02-01T06:18:29;100214.91;;;5.43;100.00
43119;BME280;28729;49.838;8.650;2023-02-01T06:22:32;100211.34;;;5.43;100.00
43119;BME280;28729;49.838;8.650;2023-02-01T06:26:34;100212.19;;;5.43;100.00
43119;BME280;28729;49.838;8.650;2023-02-01T06:30:37;100210.75;;;5.47;100.00
43119;BME280;28729;49.838;8.650;2023-02-01T06:34:42;100219.78;;;5.48;100.00
43119;BME280;28729;49.838;8.650;2023-02-01T06:38:44;100216.22;;;5.47;100.00
43119;BME280;28729;49.838;8.650;2023-02-01T06:42:48;100221.03;;;5.52;100.00
43119;BME280;28729;49.838;8.650;2023-02-01T06:46:50;100215.78;;;5.51;100.00
43119;BME280;28729;49.838;8.650;2023-02-01T06:50:51;100251.94;;;5.53;100.00
43119;BME280;28729;49.838;8.650;2023-02-01T06:54:53;100245.63;;;5.45;100.00
43119;BME280;28729;49.838;8.650;2023-02-01T06:58:55;100238.06;;;5.47;100.00
43119;BME280;28729;49.838;8.650;2023-02-01T07:02:57;100214.69;;;5.38;100.00
43119;BME280;28729;49.838;8.650;2023-02-01T07:07:00;100215.91;;;5.22;100.00
43119;BME280;28729;49.838;8.650;2023-02-01T07:11:06;100225.31;;;5.07;100.00
43119;BME280;28729;49.838;8.650;2023-02-01T07:15:09;100224.84;;;4.96;100.00
43119;BME280;28729;49.838;8.650;2023-02-01T07:19:11;100229.44;;;4.89;100.00
43119;BME280;28729;49.838;8.650;2023-02-01T07:23:12;100216.78;;;4.82;100.00
43119;BME280;28729;49.838;8.650;2023-02-01T07:27:14;100215.50;;;4.77;100.00
43119;BME280;28729;49.838;8.650;2023-02-01T07:31:18;100221.13;;;4.69;100.00
43119;BME280;28729;49.838;8.650;2023-02-01T07:35:22;100228.47;;;4.69;100.00
43119;BME280;28729;49.838;8.650;2023-02-01T07:39:23;100233.50;;;4.65;100.00
43119;BME280;28729;49.838;8.650;2023-02-01T07:43:26;100242.09;;;4.62;100.00
43119;BME280;28729;49.838;8.650;2023-02-01T07:47:28;100239.38;;;4.62;100.00
43119;BME280;28729;49.838;8.650;2023-02-01T07:51:29;100250.28;;;4.62;100.00
43119;BME280;28729;49.838;8.650;2023-02-01T07:55:31;100256.59;;;4.63;100.00
43119;BME280;28729;49.838;8.650;2023-02-01T07:59:32;100263.31;;;4.67;100.00
43119;BME280;28729;49.838;8.650;2023-02-01T08:03:34;100269.28;;;4.77;100.00
43119;BME280;28729;49.838;8.650;2023-02-01T08:07:37;100274.59;;;4.85;100.00
43119;BME280;28729;49.838;8.650;2023-02-01T08:11:38;100278.19;;;4.92;100.00
43119;BME280;28729;49.838;8.650;2023-02-01T08:15:42;100277.63;;;5.03;100.00
43119;BME280;28729;49.838;8.650;2023-02-01T08:19:44;100291.75;;;5.14;100.00
43119;BME280;28729;49.838;8.650;2023-02-01T08:23:45;100288.03;;;5.28;100.00
43119;BME280;28729;49.838;8.650;2023-02-01T08:27:47;100289.34;;;5.39;100.00
43119;BME280;28729;49.838;8.650;2023-02-01T08:31:49;100306.16;;;5.42;100.00
43119;BME280;28729;49.838;8.650;2023-02-01T08:35:52;100306.41;;;5.47;100.00
43119;BME280;28729;49.838;8.650;2023-02-01T08:39:53;100308.53;;;5.59;100.00
43119;BME280;28729;49.838;8.650;2023-02-01T08:43:56;100298.91;;;5.76;100.00
43119;BME280;28729;49.838;8.650;2023-02-01T08:47:58;100305.34;;;6.10;100.00
43119;BME280;28729;49.838;8.650;2023-02-01T08:51:59;100308.06;;;6.36;100.00
43119;BME280;28729;49.838;8.650;2023-02-01T08:56:09;100316.09;;;6.58;100.00
43119;BME280;28729;49.838;8.650;2023-02-01T09:00:13;100311.66;;;6.57;100.00
43119;BME280;28729;49.838;8.650;2023-02-01T09:04:16;100311.03;;;6.55;100.00
43119;BME280;28729;49.838;8.650;2023-02-01T09:08:18;100309.56;;;6.52;100.00
43119;BME280;28729;49.838;8.650;2023-02-01T09:12:21;100320.72;;;6.51;100.00
43119;BME280;28729;49.838;8.650;2023-02-01T09:16:23;100308.09;;;6.50;100.00
43119;BME280;28729;49.838;8.650;2023-02-01T09:20:25;100310.84;;;6.43;100.00
43119;BME280;28729;49.838;8.650;2023-02-01T09:24:27;100315.44;;;6.56;100.00
43119;BME280;28729;49.838;8.650;2023-02-01T09:28:29;100319.44;;;6.80;100.00
43119;BME280;28729;49.838;8.650;2023-02-01T09:32:30;100341.75;;;7.03;100.00
43119;BME280;28729;49.838;8.650;2023-02-01T09:36:33;100352.50;;;7.05;100.00
43119;BME280;28729;49.838;8.650;2023-02-01T09:40:35;100368.94;;;7.05;100.00
43119;BME280;28729;49.838;8.650;2023-02-01T09:49:16;100384.31;;;6.93;100.00
43119;BME280;28729;49.838;8.650;2023-02-01T09:53:28;100388.97;;;6.92;100.00
43119;BME280;28729;49.838;8.650;2023-02-01T09:57:41;100395.72;;;6.96;100.00
43119;BME280;28729;49.838;8.650;2023-02-01T10:01:45;100387.69;;;7.01;100.00
43119;BME280;28729;49.838;8.650;2023-02-01T10:18:49;100385.31;;;7.31;99.28
43119;BME280;28729;49.838;8.650;2023-02-01T10:27:36;100383.34;;;7.52;96.71
43119;BME280;28729;49.838;8.650;2023-02-01T10:31:39;100366.91;;;7.59;96.10
43119;BME280;28729;49.838;8.650;2023-02-01T10:35:41;100360.50;;;7.71;95.31
43119;BME280;28729;49.838;8.650;2023-02-01T10:39:48;100354.34;;;7.83;91.86
43119;BME280;28729;49.838;8.650;2023-02-01T10:43:54;100348.41;;;7.86;89.08
43119;BME280;28729;49.838;8.650;2023-02-01T10:48:00;100339.50;;;7.90;88.92
43119;BME280;28729;49.838;8.650;2023-02-01T10:52:13;100341.22;;;7.85;89.16
43119;BME280;28729;49.838;8.650;2023-02-01T10:56:23;100330.69;;;7.88;90.15
43119;BME280;28729;49.838;8.650;2023-02-01T11:01:03;100319.56;;;7.76;89.87
43119;BME280;28729;49.838;8.650;2023-02-01T11:05:10;100302.94;;;7.65;88.73
43119;BME280;28729;49.838;8.650;2023-02-01T11:09:24;100289.44;;;7.63;88.98
43119;BME280;28729;49.838;8.650;2023-02-01T11:13:30;100292.19;;;7.63;88.79
43119;BME280;28729;49.838;8.650;2023-02-01T11:17:38;100290.75;;;7.54;86.06
43119;BME280;28729;49.838;8.650;2023-02-01T11:21:42;100295.84;;;7.50;87.35
43119;BME280;28729;49.838;8.650;2023-02-01T11:26:23;100297.75;;;7.43;87.45
43119;BME280;28729;49.838;8.650;2023-02-01T11:34:40;100296.47;;;7.46;88.25
43119;BME280;28729;49.838;8.650;2023-02-01T11:38:53;100296.22;;;7.54;87.19
43119;BME280;28729;49.838;8.650;2023-02-01T11:43:00;100302.59;;;7.48;85.60
43119;BME280;28729;49.838;8.650;2023-02-01T11:47:28;100302.81;;;7.40;84.18
43119;BME280;28729;49.838;8.650;2023-02-01T11:51:36;100298.56;;;7.50;86.09
43119;BME280;28729;49.838;8.650;2023-02-01T12:05:25;100296.00;;;7.62;85.65
43119;BME280;28729;49.838;8.650;2023-02-01T12:10:04;100294.72;;;7.58;86.01
43119;BME280;28729;49.838;8.650;2023-02-01T12:19:31;100269.66;;;7.54;84.15
43119;BME280;28729;49.838;8.650;2023-02-01T12:32:52;100258.47;;;7.49;84.76
43119;BME280;28729;49.838;8.650;2023-02-01T12:37:02;100256.41;;;7.45;84.88
43119;BME280;28729;49.838;8.650;2023-02-01T12:41:49;100260.19;;;7.50;85.17
43119;BME280;28729;49.838;8.650;2023-02-01T12:45:58;100247.09;;;7.52;85.16
43119;BME280;28729;49.838;8.650;2023-02-01T12:58:55;100198.59;;;7.53;84.75
43119;BME280;28729;49.838;8.650;2023-02-01T13:07:39;100197.50;;;7.54;84.00
43119;BME280;28729;49.838;8.650;2023-02-01T13:11:44;100200.63;;;7.58;83.40
43119;BME280;28729;49.838;8.650;2023-02-01T13:15:58;100193.09;;;7.53;82.36
43119;BME280;28729;49.838;8.650;2023-02-01T13:20:23;100198.13;;;7.56;82.81
43119;BME280;28729;49.838;8.650;2023-02-01T13:24:40;100200.88;;;7.56;83.67
43119;BME280;28729;49.838;8.650;2023-02-01T13:46:07;100207.69;;;7.47;84.95
43119;BME280;28729;49.838;8.650;2023-02-01T13:50:22;100211.25;;;7.47;84.74
43119;BME280;28729;49.838;8.650;2023-02-01T13:54:39;100196.88;;;7.52;84.17
43119;BME280;28729;49.838;8.650;2023-02-01T13:58:43;100204.84;;;7.60;84.84
43119;BME280;28729;49.838;8.650;2023-02-01T14:07:16;100202.69;;;7.69;83.95
43119;BME280;28729;49.838;8.650;2023-02-01T14:11:33;100195.91;;;7.71;83.40
43119;BME280;28729;49.838;8.650;2023-02-01T14:15:37;100213.66;;;7.69;83.00
43119;BME280;28729;49.838;8.650;2023-02-01T14:19:39;100209.91;;;7.63;82.28
43119;BME280;28729;49.838;8.650;2023-02-01T14:23:43;100211.56;;;7.64;81.71
43119;BME280;28729;49.838;8.650;2023-02-01T14:27:45;100213.03;;;7.67;82.10
43119;BME280;28729;49.838;8.650;2023-02-01T14:36:14;100197.19;;;7.69;81.85
43119;BME280;28729;49.838;8.650;2023-02-01T14:40:20;100188.31;;;7.73;82.07
43119;BME280;28729;49.838;8.650;2023-02-01T14:44:27;100185.41;;;7.68;82.61
43119;BME280;28729;49.838;8.650;2023-02-01T14:52:58;100181.97;;;7.73;83.46
43119;BME280;28729;49.838;8.650;2023-02-01T14:57:03;100185.16;;;7.70;85.04
43119;BME280;28729;49.838;8.650;2023-02-01T15:05:35;100185.88;;;7.59;85.82
43119;BME280;28729;49.838;8.650;2023-02-01T15:09:44;100179.53;;;7.58;86.46
43119;BME280;28729;49.838;8.650;2023-02-01T15:13:50;100172.00;;;7.53;85.86
43119;BME280;28729;49.838;8.650;2023-02-01T15:17:58;100171.09;;;7.60;84.89
43119;BME280;28729;49.838;8.650;2023-02-01T15:22:03;100176.97;;;7.63;84.29
43119;BME280;28729;49.838;8.650;2023-02-01T15:26:05;100182.47;;;7.63;83.97
43119;BME280;28729;49.838;8.650;2023-02-01T15:30:08;100193.00;;;7.66;83.57
43119;BME280;28729;49.838;8.650;2023-02-01T15:34:11;100190.50;;;7.65;84.01
43119;BME280;28729;49.838;8.650;2023-02-01T15:42:28;100191.97;;;7.61;83.89
43119;BME280;28729;49.838;8.650;2023-02-01T15:46:36;100187.13;;;7.63;83.58
43119;BME280;28729;49.838;8.650;2023-02-01T15:50:39;100190.06;;;7.61;83.00
43119;BME280;28729;49.838;8.650;2023-02-01T15:54:46;100178.19;;;7.74;83.56
43119;BME280;28729;49.838;8.650;2023-02-01T15:58:56;100187.50;;;7.66;83.09
43119;BME280;28729;49.838;8.650;2023-02-01T16:03:00;100188.13;;;7.68;83.08
43119;BME280;28729;49.838;8.650;2023-02-01T16:07:25;100173.59;;;7.68;83.39
43119;BME280;28729;49.838;8.650;2023-02-01T16:11:41;100190.94;;;7.62;83.46
43119;BME280;28729;49.838;8.650;2023-02-01T16:15:43;100193.75;;;7.48;83.64
43119;BME280;28729;49.838;8.650;2023-02-01T16:19:45;100182.56;;;7.50;83.86
43119;BME280;28729;49.838;8.650;2023-02-01T16:23:50;100197.13;;;7.50;83.38
43119;BME280;28729;49.838;8.650;2023-02-01T16:27:53;100197.56;;;7.47;84.28
43119;BME280;28729;49.838;8.650;2023-02-01T16:31:55;100197.75;;;7.52;84.57
43119;BME280;28729;49.838;8.650;2023-02-01T16:35:57;100203.91;;;7.41;84.73
43119;BME280;28729;49.838;8.650;2023-02-01T16:40:01;100201.81;;;7.37;85.11
43119;BME280;28729;49.838;8.650;2023-02-01T16:44:03;100206.03;;;7.39;85.22
43119;BME280;28729;49.838;8.650;2023-02-01T16:48:05;100202.66;;;7.37;85.11
43119;BME280;28729;49.838;8.650;2023-02-01T16:52:14;100196.56;;;7.35;85.43
43119;BME280;28729;49.838;8.650;2023-02-01T16:56:19;100200.78;;;7.38;85.78
43119;BME280;28729;49.838;8.650;2023-02-01T17:00:22;100202.50;;;7.32;86.02
43119;BME280;28729;49.838;8.650;2023-02-01T17:04:26;100200.59;;;7.33;86.33
43119;BME280;28729;49.838;8.650;2023-02-01T17:08:33;100197.66;;;7.27;86.55
43119;BME280;28729;49.838;8.650;2023-02-01T17:12:35;100190.50;;;7.26;86.96
43119;BME280;28729;49.838;8.650;2023-02-01T17:16:37;100186.28;;;7.24;87.18
43119;BME280;28729;49.838;8.650;2023-02-01T17:20:39;100191.38;;;7.20;87.64
43119;BME280;28729;49.838;8.650;2023-02-01T17:24:41;100188.63;;;7.20;87.55
43119;BME280;28729;49.838;8.650;2023-02-01T17:28:49;100190.75;;;7.18;87.92
43119;BME280;28729;49.838;8.650;2023-02-01T17:32:51;100189.50;;;7.14;87.75
43119;BME280;28729;49.838;8.650;2023-02-01T17:36:53;100201.34;;;7.08;88.33
43119;BME280;28729;49.838;8.650;2023-02-01T17:40:55;100202.81;;;7.04;88.65
43119;BME280;28729;49.838;8.650;2023-02-01T17:44:59;100208.09;;;7.05;89.06
43119;BME280;28729;49.838;8.650;2023-02-01T17:49:01;100215.69;;;7.03;89.21
43119;BME280;28729;49.838;8.650;2023-02-01T17:53:05;100212.75;;;6.98;89.92
43119;BME280;28729;49.838;8.650;2023-02-01T17:57:13;100214.25;;;6.94;90.41
43119;BME280;28729;49.838;8.650;2023-02-01T18:01:22;100209.41;;;6.96;90.72
43119;BME280;28729;49.838;8.650;2023-02-01T18:05:34;100209.84;;;6.93;91.04
43119;BME280;28729;49.838;8.650;2023-02-01T18:09:37;100210.25;;;6.97;91.13
43119;BME280;28729;49.838;8.650;2023-02-01T18:13:39;100212.75;;;6.98;90.98
43119;BME280;28729;49.838;8.650;2023-02-01T18:17:41;100213.38;;;7.00;91.03
43119;BME280;28729;49.838;8.650;2023-02-01T18:21:43;100212.56;;;6.93;90.96
43119;BME280;28729;49.838;8.650;2023-02-01T18:25:45;100213.59;;;6.99;90.40
43119;BME280;28729;49.838;8.650;2023-02-01T18:29:47;100214.88;;;6.96;90.25
43119;BME280;28729;49.838;8.650;2023-02-01T18:33:50;100216.56;;;6.97;89.96
43119;BME280;28729;49.838;8.650;2023-02-01T18:37:54;100213.19;;;6.95;90.22
43119;BME280;28729;49.838;8.650;2023-02-01T18:41:57;100214.44;;;6.99;89.84
43119;BME280;28729;49.838;8.650;2023-02-01T18:45:59;100211.91;;;6.98;89.48
43119;BME280;28729;49.838;8.650;2023-02-01T18:50:00;100216.97;;;7.01;89.69
43119;BME280;28729;49.838;8.650;2023-02-01T18:54:02;100208.09;;;6.99;89.47
43119;BME280;28729;49.838;8.650;2023-02-01T18:58:04;100215.28;;;7.00;89.29
43119;BME280;28729;49.838;8.650;2023-02-01T19:02:11;100211.50;;;6.94;89.14
43119;BME280;28729;49.838;8.650;2023-02-01T19:06:13;100219.06;;;6.99;89.39
43119;BME280;28729;49.838;8.650;2023-02-01T19:10:20;100215.50;;;6.98;89.77
43119;BME280;28729;49.838;8.650;2023-02-01T19:14:22;100223.09;;;6.96;89.83
43119;BME280;28729;49.838;8.650;2023-02-01T19:18:25;100219.94;;;6.93;89.84
43119;BME280;28729;49.838;8.650;2023-02-01T19:22:27;100215.09;;;6.95;90.10
43119;BME280;28729;49.838;8.650;2023-02-01T19:26:28;100215.31;;;6.93;90.16
43119;BME280;28729;49.838;8.650;2023-02-01T19:30:30;100233.00;;;6.97;90.46
43119;BME280;28729;49.838;8.650;2023-02-01T19:34:32;100232.59;;;6.94;90.55
43119;BME280;28729;49.838;8.650;2023-02-01T19:38:34;100232.38;;;6.95;90.46
43119;BME280;28729;49.838;8.650;2023-02-01T19:42:54;100241.63;;;7.01;90.53
43119;BME280;28729;49.838;8.650;2023-02-01T19:46:57;100231.72;;;7.00;90.52
43119;BME280;28729;49.838;8.650;2023-02-01T19:51:00;100230.88;;;6.99;90.48
43119;BME280;28729;49.838;8.650;2023-02-01T19:55:05;100234.22;;;7.01;90.99
43119;BME280;28729;49.838;8.650;2023-02-01T19:59:08;100238.88;;;7.01;91.31
43119;BME280;28729;49.838;8.650;2023-02-01T20:03:10;100242.69;;;7.00;91.20
43119;BME280;28729;49.838;8.650;2023-02-01T20:07:14;100253.00;;;6.98;91.51
43119;BME280;28729;49.838;8.650;2023-02-01T20:11:18;100251.34;;;6.97;91.85
43119;BME280;28729;49.838;8.650;2023-02-01T20:15:25;100247.53;;;6.98;91.79
43119;BME280;28729;49.838;8.650;2023-02-01T20:19:29;100252.81;;;6.93;92.13
43119;BME280;28729;49.838;8.650;2023-02-01T20:23:35;100248.19;;;6.93;92.22
43119;BME280;28729;49.838;8.650;2023-02-01T20:27:50;100249.19;;;6.99;92.29
43119;BME280;28729;49.838;8.650;2023-02-01T20:32:07;100249.44;;;6.97;92.60
43119;BME280;28729;49.838;8.650;2023-02-01T20:36:09;100253.00;;;6.98;92.49
43119;BME280;28729;49.838;8.650;2023-02-01T20:40:11;100247.75;;;6.96;92.67
43119;BME280;28729;49.838;8.650;2023-02-01T20:44:15;100253.66;;;7.00;92.74
43119;BME280;28729;49.838;8.650;2023-02-01T20:48:16;100244.38;;;6.94;93.06
43119;BME280;28729;49.838;8.650;2023-02-01T20:52:22;100242.69;;;7.00;92.96
43119;BME280;28729;49.838;8.650;2023-02-01T20:56:25;100250.28;;;6.98;92.92
43119;BME280;28729;49.838;8.650;2023-02-01T21:00:27;100253.84;;;7.05;92.65
43119;BME280;28729;49.838;8.650;2023-02-01T21:04:30;100246.47;;;6.99;92.97
43119;BME280;28729;49.838;8.650;2023-02-01T21:08:33;100253.66;;;7.00;92.96
43119;BME280;28729;49.838;8.650;2023-02-01T21:12:35;100260.34;;;7.11;92.49
43119;BME280;28729;49.838;8.650;2023-02-01T21:16:39;100252.34;;;7.09;92.41
43119;BME280;28729;49.838;8.650;2023-02-01T21:20:47;100254.41;;;7.14;92.09
43119;BME280;28729;49.838;8.650;2023-02-01T21:25:04;100273.41;;;7.15;92.26
43119;BME280;28729;49.838;8.650;2023-02-01T21:29:12;100266.66;;;7.18;92.16
43119;BME280;28729;49.838;8.650;2023-02-01T21:33:13;100265.59;;;7.19;92.12
43119;BME280;28729;49.838;8.650;2023-02-01T21:37:15;100259.91;;;7.20;92.17
43119;BME280;28729;49.838;8.650;2023-02-01T21:41:22;100267.50;;;7.18;92.05
43119;BME280;28729;49.838;8.650;2023-02-01T21:45:43;100273.78;;;7.25;91.95
43119;BME280;28729;49.838;8.650;2023-02-01T21:49:51;100274.41;;;7.27;92.15
43119;BME280;28729;49.838;8.650;2023-02-01T21:53:53;100273.16;;;7.23;92.03
43119;BME280;28729;49.838;8.650;2023-02-01T21:57:55;100270.59;;;7.28;92.02
43119;BME280;28729;49.838;8.650;2023-02-01T22:01:57;100268.09;;;7.27;91.97
43119;BME280;28729;49.838;8.650;2023-02-01T22:05:58;100264.69;;;7.31;91.96
43119;BME280;28729;49.838;8.650;2023-02-01T22:10:00;100277.78;;;7.29;92.23
43119;BME280;28729;49.838;8.650;2023-02-01T22:14:02;100282.19;;;7.30;92.15
43119;BME280;28729;49.838;8.650;2023-02-01T22:18:04;100275.03;;;7.29;92.62
43119;BME280;28729;49.838;8.650;2023-02-01T22:22:06;100278.38;;;7.31;92.54
43119;BME280;28729;49.838;8.650;2023-02-01T22:26:10;100272.28;;;7.36;92.37
43119;BME280;28729;49.838;8.650;2023-02-01T22:30:13;100284.28;;;7.42;92.45
43119;BME280;28729;49.838;8.650;2023-02-01T22:34:15;100277.94;;;7.41;92.54
43119;BME280;28729;49.838;8.650;2023-02-01T22:38:16;100285.78;;;7.38;92.90
43119;BME280;28729;49.838;8.650;2023-02-01T22:42:18;100282.41;;;7.36;93.30
43119;BME280;28729;49.838;8.650;2023-02-01T22:46:23;100284.47;;;7.40;92.99
43119;BME280;28729;49.838;8.650;2023-02-01T22:50:25;100285.53;;;7.39;93.33
43119;BME280;28729;49.838;8.650;2023-02-01T22:54:27;100273.31;;;7.42;93.33
43119;BME280;28729;49.838;8.650;2023-02-01T22:58:29;100275.41;;;7.40;93.96
43119;BME280;28729;49.838;8.650;2023-02-01T23:02:31;100275.44;;;7.33;94.42
43119;BME280;28729;49.838;8.650;2023-02-01T23:06:33;100277.94;;;7.35;94.74
43119;BME280;28729;49.838;8.650;2023-02-01T23:10:35;100288.50;;;7.38;94.99
43119;BME280;28729;49.838;8.650;2023-02-01T23:14:37;100287.22;;;7.40;94.79
43119;BME280;28729;49.838;8.650;2023-02-01T23:18:59;100286.13;;;7.48;94.73
43119;BME280;28729;49.838;8.650;2023-02-01T23:23:01;100285.50;;;7.46;95.87
43119;BME280;28729;49.838;8.650;2023-02-01T23:27:02;100294.16;;;7.43;96.40
43119;BME280;28729;49.838;8.650;2023-02-01T23:31:08;100292.25;;;7.43;96.92
43119;BME280;28729;49.838;8.650;2023-02-01T23:35:10;100291.47;;;7.36;98.18
43119;BME280;28729;49.838;8.650;2023-02-01T23:39:11;100290.81;;;7.41;97.82
43119;BME280;28729;49.838;8.650;2023-02-01T23:43:13;100278.56;;;7.43;97.92